TimeCET,TemperatureF,Dew PointF,Humidity,Sea Level PressureIn,VisibilityMPH,Wind Direction,Wind SpeedMPH,Gust SpeedMPH,PrecipitationIn,Events,Conditions,WindDirDegrees,DateUTC
12:15 AM,32.0,28.4,87,30.12,3.7,Calm,Calm,-,N/A,,Unknown,0,2013-02-18 23:15:00
12:45 AM,32.0,28.4,87,30.12,3.7,Calm,Calm,-,N/A,,Unknown,0,2013-02-18 23:45:00
1:15 AM,30.2,28.4,93,30.09,3.7,Calm,Calm,-,N/A,,Unknown,0,2013-02-19 00:15:00
1:45 AM,30.2,28.4,93,30.09,3.7,Calm,Calm,-,N/A,,Unknown,0,2013-02-19 00:45:00
2:15 AM,28.4,28.4,100,30.09,3.1,Calm,Calm,-,N/A,,Overcast,0,2013-02-19 01:15:00
2:45 AM,28.4,28.4,100,30.06,3.1,Calm,Calm,-,N/A,,Overcast,0,2013-02-19 01:45:00
3:15 AM,28.4,26.6,93,30.06,2.5,Calm,Calm,-,N/A,,Scattered Clouds,0,2013-02-19 02:15:00
3:45 AM,28.4,28.4,100,30.06,2.5,Calm,Calm,-,N/A,,Partly Cloudy,0,2013-02-19 02:45:00
4:15 AM,28.4,28.4,100,30.06,2.5,SSW,4.5,-,N/A,,Clear,210,2013-02-19 03:15:00
4:45 AM,28.4,26.6,93,30.06,2.5,SSW,4.5,-,N/A,,Clear,210,2013-02-19 03:45:00
5:15 AM,28.4,26.6,93,30.06,2.5,SSW,2.2,-,N/A,,Clear,200,2013-02-19 04:15:00
5:45 AM,-9999,-9999,N/A,-9999,3.1,WSW,8.9,-,N/A,,Mostly Cloudy,240,2013-02-19 04:45:00
6:15 AM,26.6,26.6,100,30.04,2.5,SSW,4.5,-,N/A,,Clear,210,2013-02-19 05:15:00
6:45 AM,26.6,26.6,100,30.04,2.5,SSW,4.5,-,N/A,,Partly Cloudy,200,2013-02-19 05:45:00
7:15 AM,26.6,26.6,100,30.04,2.5,SSW,2.2,-,N/A,,Partly Cloudy,210,2013-02-19 06:15:00
7:45 AM,28.4,26.6,93,30.04,1.9,SW,2.2,-,N/A,,Mostly Cloudy,230,2013-02-19 06:45:00
8:15 AM,32.0,28.4,87,30.04,1.9,West,2.2,-,N/A,,Mostly Cloudy,260,2013-02-19 07:15:00
8:45 AM,-9999,-9999,N/A,-9999,3.1,WSW,8.9,-,N/A,,Scattered Clouds,240,2013-02-19 07:45:00
9:15 AM,33.8,28.4,81,30.01,2.5,SW,4.5,-,N/A,,Mostly Cloudy,230,2013-02-19 08:15:00
9:45 AM,33.8,30.2,87,30.01,2.5,WSW,4.5,-,N/A,,Mostly Cloudy,240,2013-02-19 08:45:00
10:15 AM,35.6,32.0,87,30.01,2.5,WSW,6.7,-,N/A,,Mostly Cloudy,250,2013-02-19 09:15:00
10:45 AM,35.6,30.2,81,30.01,2.5,WSW,6.7,-,N/A,,Overcast,250,2013-02-19 09:45:00
11:15 AM,35.6,30.2,81,30.01,2.5,SW,6.7,-,N/A,,Overcast,230,2013-02-19 10:15:00
11:45 AM,-9999,-9999,N/A,-9999,5.0,SW,8.9,-,N/A,,Overcast,230,2013-02-19 10:45:00
12:15 PM,39.2,28.4,65,29.98,3.7,WSW,6.7,-,N/A,,Mostly Cloudy,250,2013-02-19 11:15:00
12:45 PM,41.0,24.8,53,29.98,6.2,WSW,6.7,-,N/A,,Mostly Cloudy,240,2013-02-19 11:45:00
1:15 PM,41.0,23.0,49,29.95,6.2,WSW,6.7,-,N/A,,Mostly Cloudy,240,2013-02-19 12:15:00
2:15 PM,41.0,24.8,53,29.95,6.2,West,6.7,-,N/A,,Mostly Cloudy,260,2013-02-19 13:15:00
2:45 PM,-9999,-9999,N/A,-9999,6.2,SW,6.7,-,N/A,,Overcast,230,2013-02-19 13:45:00
3:15 PM,41.0,21.2,45,29.92,6.2,WSW,6.7,-,N/A,,Mostly Cloudy,250,2013-02-19 14:15:00
3:45 PM,41.0,23.0,49,29.92,6.2,WSW,6.7,-,N/A,,Mostly Cloudy,240,2013-02-19 14:45:00
4:15 PM,41.0,24.8,53,29.89,6.2,SSW,8.9,-,N/A,,Mostly Cloudy,210,2013-02-19 15:15:00
4:45 PM,39.2,24.8,56,29.89,6.2,SW,6.7,-,N/A,,Mostly Cloudy,220,2013-02-19 15:45:00
5:15 PM,37.4,24.8,60,29.89,-9999.0,SW,4.5,-,N/A,,Clear,220,2013-02-19 16:15:00
5:45 PM,-9999,-9999,N/A,-9999,3.7,SW,6.7,-,N/A,,Unknown,230,2013-02-19 16:45:00
6:15 PM,35.6,24.8,65,29.89,-9999.0,SSW,2.2,-,N/A,,Clear,210,2013-02-19 17:15:00
6:45 PM,35.6,24.8,65,29.89,-9999.0,SSW,2.2,-,N/A,,Clear,210,2013-02-19 17:45:00
7:15 PM,35.6,24.8,65,29.89,-9999.0,SSW,4.5,-,N/A,,Clear,200,2013-02-19 18:15:00
7:45 PM,35.6,26.6,70,29.89,6.2,SSW,4.5,-,N/A,,Overcast,210,2013-02-19 18:45:00
8:15 PM,35.6,28.4,75,29.89,5.0,SW,4.5,-,N/A,Snow,Light Snow,220,2013-02-19 19:15:00
8:45 PM,-9999,-9999,N/A,-9999,5.0,SW,6.7,-,N/A,Rain,Light Rain Showers,230,2013-02-19 19:45:00
9:15 PM,37.4,30.2,75,29.89,5.0,SW,6.7,-,N/A,Rain-Snow,Light Rain,220,2013-02-19 20:15:00
9:45 PM,37.4,30.2,75,29.89,5.0,SSW,6.7,-,N/A,Rain-Snow,Light Rain,210,2013-02-19 20:45:00
10:15 PM,37.4,30.2,75,29.89,5.0,SSW,4.5,-,N/A,,Mostly Cloudy,210,2013-02-19 21:15:00
10:45 PM,37.4,30.2,75,29.89,5.0,SW,6.7,-,N/A,,Overcast,230,2013-02-19 21:45:00
11:01 PM,37.4,30.2,75,29.89,5.0,West,8.9,-,N/A,Rain-Snow,Light Rain,260,2013-02-19 22:01:00
11:15 PM,35.6,32.0,87,29.89,5.0,West,8.9,-,N/A,Rain-Snow,Light Rain,260,2013-02-19 22:15:00
11:45 PM,-9999,-9999,N/A,-9999,5.0,North,-9999.0,-,N/A,Rain,Light Rain Showers,0,2013-02-19 22:45:00